Time;durP1;ratioP1;P1;durP2;ratioP2;P2;SDS_P1;SDS_P2;PMS_P1;PMS_P2;Temp;Humidity;BMP_temperature;BMP_pressure;BME280_temperature;BME280_humidity;BME280_pressure;Samples;Min_cycle;Max_cycle;Signal;HPM_P1;HPM_P2
2023/11/02 00:02:27;;;;;;;1999.90;999.90;;;;;;;12.65;68.87;96145.25;5154529;27;20172;-63
2023/11/02 00:04:55;;;;;;;1999.90;999.90;;;;;;;12.61;68.97;96147.19;5154584;27;20043;-64
2023/11/02 00:07:24;;;;;;;1999.90;999.90;;;;;;;12.60;68.51;96147.25;5154491;27;20082;-63
2023/11/02 00:09:57;;;;;;;1999.90;999.90;;;;;;;12.56;68.41;96141.34;5154336;27;20042;-63
2023/11/02 00:12:28;;;;;;;1999.90;999.90;;;;;;;12.57;67.96;96147.41;5155018;27;20043;-63
2023/11/02 00:14:56;;;;;;;1999.90;999.90;;;;;;;12.62;67.23;96145.41;5158358;27;20054;-63
2023/11/02 00:17:59;;;;;;;1999.90;999.90;;;;;;;12.70;67.26;96142.41;5158163;27;20050;-63
2023/11/02 00:20:39;;;;;;;1999.90;999.90;;;;;;;12.66;66.67;96131.19;5158489;27;20047;-63
2023/11/02 00:23:09;;;;;;;1999.90;999.90;;;;;;;12.71;66.30;96125.72;5158191;27;20043;-63
2023/11/02 00:25:52;;;;;;;1999.90;999.90;;;;;;;12.75;66.08;96129.88;5158269;27;20282;-63
2023/11/02 00:28:19;;;;;;;1999.90;999.90;;;;;;;12.77;65.53;96120.16;5155420;27;20053;-63
2023/11/02 00:30:48;;;;;;;1999.90;999.90;;;;;;;12.84;65.36;96121.50;5157990;27;20043;-63
2023/11/02 00:33:16;;;;;;;1999.90;999.90;;;;;;;12.94;64.38;96126.25;5157930;27;20430;-63
2023/11/02 00:35:45;;;;;;;1999.90;999.90;;;;;;;13.03;64.77;96128.38;5158157;27;20043;-63
2023/11/02 00:38:22;;;;;;;1999.90;999.90;;;;;;;13.08;64.24;96131.59;5157868;27;20129;-64
2023/11/02 00:40:50;;;;;;;1999.90;999.90;;;;;;;13.11;63.81;96127.94;5157841;27;20047;-63
2023/11/02 00:43:21;;;;;;;1999.90;999.90;;;;;;;13.16;63.85;96128.56;5157835;27;20095;-63
2023/11/02 00:45:47;;;;;;;;;;;;;;;13.19;63.46;96125.78;5158260;27;20047;-62
2023/11/02 00:48:20;;;;;;;1999.90;999.90;;;;;;;13.21;63.32;96130.91;5157842;27;19926;-63
2023/11/02 00:51:19;;;;;;;1999.90;999.90;;;;;;;13.23;62.70;96129.91;5157739;27;20099;-63
2023/11/02 00:53:52;;;;;;;1999.90;999.90;;;;;;;13.30;63.95;96119.06;5157677;27;20453;-63
2023/11/02 00:56:19;;;;;;;1999.90;999.90;;;;;;;13.29;62.47;96119.97;5157666;27;20056;-63
2023/11/02 00:58:49;;;;;;;1999.90;999.90;;;;;;;13.34;62.00;96104.84;5157501;27;20138;-63
2023/11/02 01:01:19;;;;;;;1999.90;999.90;;;;;;;13.38;62.82;96098.47;5157475;27;20480;-63
2023/11/02 01:03:48;;;;;;;1999.90;999.90;;;;;;;13.38;62.33;96091.44;5157552;27;20046;-63
2023/11/02 01:06:19;;;;;;;1999.90;999.90;;;;;;;13.42;61.77;96104.41;5157677;27;20123;-63
2023/11/02 01:09:24;;;;;;;1999.90;999.90;;;;;;;13.47;61.82;96104.97;5157440;27;20078;-63
2023/11/02 01:11:52;;;;;;;1999.90;999.90;;;;;;;13.48;61.52;96104.03;5157327;27;20489;-63
2023/11/02 01:14:46;;;;;;;1999.90;999.90;;;;;;;13.52;61.12;96103.81;5157194;27;20049;-63
2023/11/02 01:17:23;;;;;;;1999.90;999.90;;;;;;;13.57;60.79;96106.16;5157064;27;20051;-63
2023/11/02 01:19:56;;;;;;;1999.90;999.90;;;;;;;13.61;60.83;96106.84;5157219;27;20042;-62
2023/11/02 01:22:49;;;;;;;1999.90;999.90;;;;;;;13.66;60.30;96109.22;5157197;27;20434;-63
2023/11/02 01:25:18;;;;;;;1999.90;999.90;;;;;;;13.67;59.92;96110.91;5156799;27;20046;-63
2023/11/02 01:27:46;;;;;;;1999.90;999.90;;;;;;;13.73;59.85;96108.75;5157011;27;20047;-63
2023/11/02 01:31:19;;;;;;;1999.90;999.90;;;;;;;13.76;59.35;96105.13;5156850;27;20052;-63
2023/11/02 01:33:59;;;;;;;1999.90;999.90;;;;;;;13.77;60.12;96093.69;5156929;27;20073;-63
2023/11/02 01:36:30;;;;;;;1999.90;999.90;;;;;;;13.76;59.79;96098.06;5156748;27;20062;-62
2023/11/02 01:39:02;;;;;;;1999.90;999.90;;;;;;;13.82;59.95;96099.50;5156524;27;20047;-63
2023/11/02 01:41:43;;;;;;;1999.90;999.90;;;;;;;13.85;60.44;96104.56;5156654;27;20441;-63
2023/11/02 01:44:20;;;;;;;1999.90;999.90;;;;;;;13.92;59.92;96097.19;5156645;27;20503;-63
2023/11/02 01:46:58;;;;;;;1999.90;999.90;;;;;;;13.93;59.81;96084.91;5156623;27;20122;-63
2023/11/02 01:49:46;;;;;;;1999.90;999.90;;;;;;;13.96;59.57;96075.03;5156540;27;20104;-62
2023/11/02 01:52:24;;;;;;;1999.90;999.90;;;;;;;13.94;59.67;96086.59;5156480;27;20047;-63
2023/11/02 01:55:01;;;;;;;1999.90;999.90;;;;;;;14.04;59.48;96095.63;5156413;27;20051;-63
2023/11/02 01:58:05;;;;;;;1999.90;999.90;;;;;;;14.10;59.15;96090.00;5156293;27;20561;-63
2023/11/02 02:00:39;;;;;;;1999.90;999.90;;;;;;;14.12;58.93;96079.41;5156325;27;20043;-63
2023/11/02 02:03:15;;;;;;;1999.90;999.90;;;;;;;14.14;59.28;96077.50;5156235;27;20127;-63
2023/11/02 02:05:50;;;;;;;1999.90;999.90;;;;;;;14.16;59.35;96078.28;5156266;27;20047;-63
2023/11/02 02:08:29;;;;;;;1999.90;999.90;;;;;;;14.22;59.66;96080.53;5156153;27;20074;-63
2023/11/02 02:11:09;;;;;;;1999.90;999.90;;;;;;;14.32;60.09;96080.81;5156279;27;20139;-63
2023/11/02 02:13:46;;;;;;;1999.90;999.90;;;;;;;14.37;60.22;96076.13;5156087;27;20054;-63
2023/11/02 02:16:22;;;;;;;1999.90;999.90;;;;;;;14.46;61.01;96074.72;5155985;27;20042;-63
2023/11/02 02:18:54;;;;;;;1999.90;999.90;;;;;;;14.51;60.95;96079.72;5155833;27;20141;-63
2023/11/02 02:21:36;;;;;;;1999.90;999.90;;;;;;;14.52;61.24;96061.19;5155885;27;20042;-63
2023/11/02 02:24:09;;;;;;;1999.90;999.90;;;;;;;14.53;61.44;96060.25;5155738;27;20085;-63
2023/11/02 02:27:03;;;;;;;1999.90;999.90;;;;;;;14.62;61.08;96064.09;5155791;27;20457;-63
2023/11/02 02:30:01;;;;;;;1999.90;999.90;;;;;;;14.65;61.69;96047.25;5155721;27;20043;-63
2023/11/02 02:33:01;;;;;;;1999.90;999.90;;;;;;;14.60;60.52;96054.59;5155653;27;20043;-63
2023/11/02 02:35:37;;;;;;;1999.90;999.90;;;;;;;14.61;60.23;96057.16;5111638;27;20035;-64
2023/11/02 02:38:07;;;;;;;1999.90;999.90;;;;;;;14.61;61.04;96046.63;5155643;27;20058;-64
2023/11/02 02:40:36;;;;;;;1999.90;999.90;;;;;;;14.60;61.41;96034.38;5155344;27;20572;-63
2023/11/02 02:43:05;;;;;;;1999.90;999.90;;;;;;;14.63;61.63;96049.97;5155414;27;20042;-63
2023/11/02 02:45:35;;;;;;;1999.90;999.90;;;;;;;14.65;62.30;96044.63;5155438;27;20129;-63
2023/11/02 02:48:03;;;;;;;1999.90;999.90;;;;;;;14.62;62.04;96031.66;5155484;27;20053;-63
2023/11/02 02:50:32;;;;;;;1999.90;999.90;;;;;;;14.65;62.32;96032.31;5155299;27;20103;-63
2023/11/02 02:53:01;;;;;;;1999.90;999.90;;;;;;;14.67;62.37;96037.50;5155233;27;20043;-63
2023/11/02 02:55:29;;;;;;;1999.90;999.90;;;;;;;14.69;62.67;96027.69;5155223;27;20575;-64
2023/11/02 02:57:59;;;;;;;1999.90;999.90;;;;;;;14.71;62.80;96030.22;5155309;27;20069;-63
2023/11/02 03:00:28;;;;;;;1999.90;999.90;;;;;;;14.73;62.81;96023.94;5155030;27;20071;-63
2023/11/02 03:02:58;;;;;;;1999.90;999.90;;;;;;;14.72;62.71;96019.59;5155213;27;20513;-63
2023/11/02 03:05:29;;;;;;;1999.90;999.90;;;;;;;14.73;62.38;96008.16;5154989;27;20080;-63
2023/11/02 03:08:03;;;;;;;1999.90;999.90;;;;;;;14.69;62.67;96001.38;5155049;27;20053;-64
2023/11/02 03:10:32;;;;;;;1999.90;999.90;;;;;;;14.72;62.41;95997.72;5155046;27;20500;-63
2023/11/02 03:13:01;;;;;;;1999.90;999.90;;;;;;;14.69;62.26;95993.47;5155074;27;20480;-63
2023/11/02 03:15:30;;;;;;;1999.90;999.90;;;;;;;14.68;62.30;95983.91;5155106;27;20047;-63
2023/11/02 03:18:09;;;;;;;1999.90;999.90;;;;;;;14.67;62.41;95987.47;5154793;27;20061;-63
2023/11/02 03:20:36;;;;;;;1999.90;999.90;;;;;;;14.65;62.34;95995.47;5154818;27;20046;-63
2023/11/02 03:23:18;;;;;;;1999.90;999.90;;;;;;;14.61;62.49;95990.50;5155002;27;20047;-63
2023/11/02 03:25:59;;;;;;;1999.90;999.90;;;;;;;14.62;62.38;95982.50;5154896;27;20053;-64
2023/11/02 03:28:31;;;;;;;;;;;;;;;14.63;62.51;95976.28;5155236;27;20050;-62
2023/11/02 03:31:15;;;;;;;1999.90;999.90;;;;;;;14.60;63.07;95965.94;5154741;27;20014;-64
2023/11/02 03:33:48;;;;;;;1999.90;999.90;;;;;;;14.51;63.17;95975.28;5154783;27;20046;-63
2023/11/02 03:36:21;;;;;;;1999.90;999.90;;;;;;;14.48;63.38;95949.16;5154760;27;20093;-63
2023/11/02 03:39:04;;;;;;;1999.90;999.90;;;;;;;14.46;63.80;95942.31;5154290;27;20068;-63
2023/11/02 03:41:45;;;;;;;1999.90;999.90;;;;;;;14.38;64.17;95933.13;5154602;27;20053;-63
2023/11/02 03:44:23;;;;;;;1999.90;999.90;;;;;;;14.27;64.86;95930.31;5154459;27;20067;-63
2023/11/02 03:47:02;;;;;;;1999.90;999.90;;;;;;;14.27;65.05;95946.94;5155955;27;20049;-64
2023/11/02 03:49:37;;;;;;;1999.90;999.90;;;;;;;14.31;65.07;95950.22;5158945;27;20061;-63
2023/11/02 03:52:14;;;;;;;1999.90;999.90;;;;;;;14.26;65.30;95949.66;5158834;27;20085;-63
2023/11/02 03:55:00;;;;;;;1999.90;999.90;;;;;;;14.23;65.70;95949.84;5158778;27;20100;-63
2023/11/02 03:57:32;;;;;;;1999.90;999.90;;;;;;;14.26;66.00;95965.44;5158780;27;20452;-64
2023/11/02 04:00:09;;;;;;;1999.90;999.90;;;;;;;14.19;66.52;95958.88;5158637;27;20047;-64
2023/11/02 04:02:44;;;;;;;1999.90;999.90;;;;;;;14.13;67.00;95955.69;5158725;27;20043;-63
2023/11/02 04:05:15;;;;;;;1999.90;999.90;;;;;;;14.11;67.15;95947.06;5158568;27;20111;-64
2023/11/02 04:08:11;;;;;;;1999.90;999.90;;;;;;;14.08;67.59;95947.22;5158604;27;20145;-62
2023/11/02 04:10:49;;;;;;;1999.90;999.90;;;;;;;14.00;68.04;95954.75;5158458;27;20047;-62
2023/11/02 04:13:22;;;;;;;1999.90;999.90;;;;;;;13.96;68.64;95958.50;5158505;27;20126;-63
2023/11/02 04:15:52;;;;;;;1999.90;999.90;;;;;;;13.97;68.46;95961.03;5158320;27;20430;-63
2023/11/02 04:18:19;;;;;;;1999.90;999.90;;;;;;;14.01;68.25;95953.81;5158334;27;20054;-63
2023/11/02 04:20:51;;;;;;;1999.90;999.90;;;;;;;13.98;68.42;95948.75;5158333;27;20507;-64
2023/11/02 04:23:20;;;;;;;1999.90;999.90;;;;;;;13.99;68.37;95951.28;5158308;27;20046;-62
2023/11/02 04:25:54;;;;;;;1999.90;999.90;;;;;;;13.98;68.58;95954.00;5158187;27;20051;-63
2023/11/02 04:28:22;;;;;;;1999.90;999.90;;;;;;;13.94;68.68;95942.00;5158028;27;20039;-64
2023/11/02 04:30:52;;;;;;;1999.90;999.90;;;;;;;13.92;68.70;95941.22;5158113;27;20050;-63
2023/11/02 04:33:19;;;;;;;1999.90;999.90;;;;;;;13.84;69.01;95942.53;5157983;27;20046;-62
2023/11/02 04:35:46;;;;;;;1999.90;999.90;;;;;;;13.80;69.30;95948.94;5157896;27;20043;-63
2023/11/02 04:38:14;;;;;;;1999.90;999.90;;;;;;;13.82;69.10;95949.66;5157797;27;20475;-62
2023/11/02 04:40:41;;;;;;;1999.90;999.90;;;;;;;13.85;69.21;95944.22;5157692;27;20107;-64
2023/11/02 04:43:10;;;;;;;1999.90;999.90;;;;;;;13.82;69.26;95954.09;5157841;27;20070;-64
2023/11/02 04:45:38;;;;;;;1999.90;999.90;;;;;;;13.72;69.51;95953.78;5157847;27;20047;-63
2023/11/02 04:48:08;;;;;;;1999.90;999.90;;;;;;;13.68;69.62;95960.16;5157704;27;20043;-64
2023/11/02 04:50:35;;;;;;;1999.90;999.90;;;;;;;13.70;69.61;95964.38;5157692;27;20062;-63
2023/11/02 04:53:02;;;;;;;1999.90;999.90;;;;;;;13.65;69.70;95961.22;5157602;27;20553;-63
2023/11/02 04:55:30;;;;;;;1999.90;999.90;;;;;;;13.61;69.86;95971.03;5157508;27;20484;-63
2023/11/02 04:57:57;;;;;;;1999.90;999.90;;;;;;;13.57;69.87;95977.41;5157129;27;20054;-63
2023/11/02 05:00:26;;;;;;;1999.90;999.90;;;;;;;13.57;70.03;95979.22;5157362;27;20042;-63
2023/11/02 05:02:53;;;;;;;1999.90;999.90;;;;;;;13.57;69.65;95982.69;5157547;27;20053;-63
2023/11/02 05:05:21;;;;;;;1999.90;999.90;;;;;;;13.56;69.69;95986.25;5157337;27;20039;-63
2023/11/02 05:07:48;;;;;;;1999.90;999.90;;;;;;;13.58;69.65;95984.34;5157317;27;20055;-62
2023/11/02 05:10:16;;;;;;;1999.90;999.90;;;;;;;13.60;69.15;96000.03;5157442;27;20046;-63
2023/11/02 05:12:43;;;;;;;1999.90;999.90;;;;;;;13.56;69.16;95999.38;5157300;27;20430;-63
2023/11/02 05:15:11;;;;;;;1999.90;999.90;;;;;;;13.50;69.10;95997.97;5157078;27;20074;-62
2023/11/02 05:17:40;;;;;;;1999.90;999.90;;;;;;;13.52;68.75;96001.34;5157125;27;20055;-64
2023/11/02 05:20:09;;;;;;;1999.90;999.90;;;;;;;13.49;68.64;96011.16;5157081;27;20061;-63
2023/11/02 05:22:41;;;;;;;1999.90;999.90;;;;;;;13.52;68.60;96018.91;5157032;27;20046;-63
2023/11/02 05:25:09;;;;;;;1999.90;999.90;;;;;;;13.52;68.28;96017.09;5156892;27;20107;-64
2023/11/02 05:27:38;;;;;;;1999.90;999.90;;;;;;;13.55;68.39;96015.25;5157083;27;20043;-63
2023/11/02 05:30:07;;;;;;;1999.90;999.90;;;;;;;13.57;68.00;96021.25;5156953;27;20496;-63
2023/11/02 05:32:37;;;;;;;1999.90;999.90;;;;;;;13.56;67.64;96022.19;5156845;27;20087;-63
2023/11/02 05:35:09;;;;;;;1999.90;999.90;;;;;;;13.55;67.66;96018.72;5156880;27;20484;-62
2023/11/02 05:37:37;;;;;;;1999.90;999.90;;;;;;;13.52;67.41;96022.34;5156879;27;20054;-63
2023/11/02 05:40:07;;;;;;;1999.90;999.90;;;;;;;13.48;67.45;96012.06;5156410;27;20127;-63
2023/11/02 05:42:35;;;;;;;1999.90;999.90;;;;;;;13.40;67.49;96002.88;5156762;27;20046;-62
2023/11/02 05:45:03;;;;;;;1999.90;999.90;;;;;;;13.45;67.35;96015.75;5156571;27;20043;-63
2023/11/02 05:47:31;;;;;;;1999.90;999.90;;;;;;;13.48;67.66;96012.94;5156703;27;20042;-63
2023/11/02 05:49:58;;;;;;;1999.90;999.90;;;;;;;13.52;67.58;96017.09;5156587;27;20518;-63
2023/11/02 05:52:27;;;;;;;1999.90;999.90;;;;;;;13.58;67.79;96013.25;5156551;27;20088;-64
2023/11/02 05:54:55;;;;;;;1999.90;999.90;;;;;;;13.57;68.04;96008.13;5156558;27;20039;-63
2023/11/02 05:57:23;;;;;;;1999.90;999.90;;;;;;;13.43;68.91;96012.38;5156460;27;20043;-64
2023/11/02 05:59:50;;;;;;;1999.90;999.90;;;;;;;13.47;68.87;96003.38;5156244;27;20135;-63
2023/11/02 06:02:17;;;;;;;1999.90;999.90;;;;;;;13.50;68.93;96005.00;5156225;27;20514;-64
2023/11/02 06:04:45;;;;;;;1999.90;999.90;;;;;;;13.54;69.29;96011.75;5156203;27;20115;-64
2023/11/02 06:07:12;;;;;;;1999.90;999.90;;;;;;;13.56;69.10;96014.28;5156240;27;20141;-63
2023/11/02 06:09:42;;;;;;;1999.90;999.90;;;;;;;13.52;69.52;96011.03;5155704;27;20388;-64
2023/11/02 06:12:10;;;;;;;1999.90;999.90;;;;;;;13.51;69.76;96006.69;5155624;27;20046;-63
2023/11/02 06:14:38;;;;;;;1999.90;999.90;;;;;;;13.48;70.01;95999.81;5156142;27;20047;-63
2023/11/02 06:17:05;;;;;;;1999.90;999.90;;;;;;;13.45;70.13;96001.78;5155939;27;20487;-63
2023/11/02 06:19:33;;;;;;;1999.90;999.90;;;;;;;13.38;70.06;96003.91;5155866;27;20047;-64
2023/11/02 06:22:00;;;;;;;1999.90;999.90;;;;;;;13.40;70.03;96016.00;5155889;27;20046;-63
2023/11/02 06:24:27;;;;;;;1999.90;999.90;;;;;;;13.39;70.33;96022.19;5155800;27;20043;-63
2023/11/02 06:26:56;;;;;;;1999.90;999.90;;;;;;;13.46;70.11;96016.59;5155767;27;20043;-63
2023/11/02 06:29:24;;;;;;;1999.90;999.90;;;;;;;13.47;70.42;96023.53;5155811;27;20085;-62
2023/11/02 06:31:51;;;;;;;1999.90;999.90;;;;;;;13.45;70.49;96017.53;5155744;27;20130;-62
2023/11/02 06:34:22;;;;;;;1999.90;999.90;;;;;;;13.44;70.77;96016.69;5155641;27;20043;-62
2023/11/02 06:36:55;;;;;;;1999.90;999.90;;;;;;;13.44;70.79;96021.94;5155525;27;20506;-64
2023/11/02 06:39:23;;;;;;;1999.90;999.90;;;;;;;13.42;71.00;96021.16;5155273;27;20138;-63
2023/11/02 06:41:51;;;;;;;1999.90;999.90;;;;;;;13.39;71.16;96024.81;5155609;27;20115;-64
2023/11/02 06:44:19;;;;;;;1999.90;999.90;;;;;;;13.40;71.36;96030.94;5155439;27;20055;-62
2023/11/02 06:46:47;;;;;;;1999.90;999.90;;;;;;;13.42;71.63;96021.16;5155462;27;20058;-63
2023/11/02 06:49:14;;;;;;;1999.90;999.90;;;;;;;13.37;71.67;96018.81;5155333;27;20042;-63
2023/11/02 06:51:41;;;;;;;1999.90;999.90;;;;;;;13.42;71.63;96015.91;5155400;27;20081;-63
2023/11/02 06:54:08;;;;;;;1999.90;999.90;;;;;;;13.40;71.89;96015.19;5155650;27;20450;-63
2023/11/02 06:56:35;;;;;;;1999.90;999.90;;;;;;;13.37;72.23;96013.53;5155209;27;20039;-63
2023/11/02 06:59:03;;;;;;;1999.90;999.90;;;;;;;13.42;72.19;96017.72;5155034;27;20505;-63
2023/11/02 07:01:31;;;;;;;1999.90;999.90;;;;;;;13.50;72.07;96015.50;5155272;27;20126;-63
2023/11/02 07:04:00;;;;;;;1999.90;999.90;;;;;;;13.53;72.07;96015.31;5155163;27;20085;-63
2023/11/02 07:06:27;;;;;;;1999.90;999.90;;;;;;;13.47;72.46;96015.66;5155182;27;20497;-64
2023/11/02 07:08:55;;;;;;;1999.90;999.90;;;;;;;13.45;72.88;96009.66;5155104;27;20052;-63
2023/11/02 07:11:22;;;;;;;1999.90;999.90;;;;;;;13.49;72.85;96003.28;5155011;27;20396;-63
2023/11/02 07:13:49;;;;;;;1999.90;999.90;;;;;;;13.49;72.92;96011.16;5155037;27;20133;-63
2023/11/02 07:16:16;;;;;;;1999.90;999.90;;;;;;;13.55;72.92;96013.47;5154934;27;20449;-63
2023/11/02 07:18:45;;;;;;;1999.90;999.90;;;;;;;13.57;73.22;96018.63;5154778;27;20587;-63
2023/11/02 07:21:12;;;;;;;1999.90;999.90;;;;;;;13.59;73.25;96007.09;5154748;27;20065;-63
2023/11/02 07:23:39;;;;;;;1999.90;999.90;;;;;;;13.53;73.72;95996.94;5154812;27;20047;-64
2023/11/02 07:26:08;;;;;;;1999.90;999.90;;;;;;;13.59;73.93;96000.97;5154864;27;20050;-63
2023/11/02 07:28:35;;;;;;;1999.90;999.90;;;;;;;13.52;74.13;95997.88;5154870;27;20046;-63
2023/11/02 07:31:03;;;;;;;1999.90;999.90;;;;;;;13.57;74.24;95995.00;5154634;27;20568;-63
2023/11/02 07:33:32;;;;;;;1999.90;999.90;;;;;;;13.59;74.19;95988.69;5154851;27;20070;-63
2023/11/02 07:36:01;;;;;;;1999.90;999.90;;;;;;;13.59;74.06;95987.84;5154903;27;20115;-63
2023/11/02 07:38:28;;;;;;;1999.90;999.90;;;;;;;13.59;74.33;95990.47;5154694;27;20047;-63
2023/11/02 07:40:55;;;;;;;1999.90;999.90;;;;;;;13.68;74.11;95989.06;5154654;27;20082;-63
2023/11/02 07:43:22;;;;;;;1999.90;999.90;;;;;;;13.73;73.71;95974.72;5154636;27;20500;-63
2023/11/02 07:45:49;;;;;;;1999.90;999.90;;;;;;;13.76;73.66;95977.16;5154642;27;20043;-63
2023/11/02 07:48:16;;;;;;;1999.90;999.90;;;;;;;13.81;73.40;95966.38;5154558;27;20634;-63
2023/11/02 07:50:43;;;;;;;1999.90;999.90;;;;;;;13.80;73.54;95969.97;5154565;27;20046;-64
2023/11/02 07:53:12;;;;;;;1999.90;999.90;;;;;;;13.79;73.76;95965.66;5154592;27;20134;-63
2023/11/02 07:55:39;;;;;;;1999.90;999.90;;;;;;;13.79;73.58;95960.38;5154651;27;20694;-64
2023/11/02 07:58:06;;;;;;;1999.90;999.90;;;;;;;13.74;73.45;95958.03;5154507;27;20050;-63
2023/11/02 08:00:34;;;;;;;1999.90;999.90;;;;;;;13.75;73.09;95961.50;5154405;27;20058;-63
2023/11/02 08:03:03;;;;;;;1999.90;999.90;;;;;;;13.77;73.03;95957.84;5154484;27;20078;-63
2023/11/02 08:05:30;;;;;;;1999.90;999.90;;;;;;;13.83;72.33;95954.00;5154448;27;20043;-63
2023/11/02 08:07:57;;;;;;;1999.90;999.90;;;;;;;13.86;72.25;95966.97;5154505;27;20122;-63
2023/11/02 08:10:26;;;;;;;1999.90;999.90;;;;;;;13.97;71.75;95966.28;5154363;27;20573;-64
2023/11/02 08:12:53;;;;;;;1999.90;999.90;;;;;;;14.04;71.62;95964.16;5154400;27;20050;-64
2023/11/02 08:15:20;;;;;;;1999.90;999.90;;;;;;;14.15;70.78;95955.59;5154393;27;20043;-62
2023/11/02 08:17:48;;;;;;;1999.90;999.90;;;;;;;14.22;70.70;95954.28;5154330;27;20103;-64
2023/11/02 08:20:15;;;;;;;1999.90;999.90;;;;;;;14.37;70.16;95959.53;5154334;27;20057;-64
2023/11/02 08:22:42;;;;;;;1999.90;999.90;;;;;;;14.44;69.61;95955.56;5154275;27;20488;-64
2023/11/02 08:25:09;;;;;;;1999.90;999.90;;;;;;;14.53;69.41;95962.03;5154172;27;20054;-63
2023/11/02 08:27:38;;;;;;;1999.90;999.90;;;;;;;14.61;69.36;95957.13;5154146;27;20433;-63
2023/11/02 08:30:07;;;;;;;1999.90;999.90;;;;;;;14.73;68.84;95958.13;5154365;27;20115;-63
2023/11/02 08:32:34;;;;;;;1999.90;999.90;;;;;;;14.78;68.70;95958.69;5154134;27;20049;-64
2023/11/02 08:35:01;;;;;;;1999.90;999.90;;;;;;;14.80;68.34;95963.00;5157116;27;20058;-64
2023/11/02 08:37:29;;;;;;;1999.90;999.90;;;;;;;14.71;68.35;95961.78;5158019;27;20133;-64
2023/11/02 08:39:57;;;;;;;1999.90;999.90;;;;;;;14.75;68.44;95964.13;5157484;27;20082;-64
2023/11/02 08:42:28;;;;;;;1999.90;999.90;;;;;;;14.72;68.55;95953.78;5157823;27;20480;-63
2023/11/02 08:44:57;;;;;;;1999.90;999.90;;;;;;;14.81;68.71;95965.56;5157811;27;20049;-63
2023/11/02 08:47:25;;;;;;;1999.90;999.90;;;;;;;14.88;68.72;95964.25;5157781;27;20133;-64
2023/11/02 08:49:53;;;;;;;1999.90;999.90;;;;;;;14.99;68.62;95967.97;5157701;27;20043;-63
2023/11/02 08:52:20;;;;;;;1999.90;999.90;;;;;;;15.13;68.46;95967.03;5157604;27;20130;-62
2023/11/02 08:54:47;;;;;;;1999.90;999.90;;;;;;;15.21;68.42;95967.41;5157614;27;20130;-63
2023/11/02 08:57:14;;;;;;;1999.90;999.90;;;;;;;15.25;67.57;95965.38;5157600;27;20074;-63
2023/11/02 08:59:41;;;;;;;1999.90;999.90;;;;;;;15.34;68.18;95958.66;5157526;27;20133;-63
2023/11/02 09:02:10;;;;;;;1999.90;999.90;;;;;;;15.45;67.20;95964.06;5157410;27;20421;-62
2023/11/02 09:04:37;;;;;;;1999.90;999.90;;;;;;;15.52;67.13;95959.22;5157593;27;20429;-63
2023/11/02 09:07:05;;;;;;;1999.90;999.90;;;;;;;15.49;66.38;95944.47;5157557;27;20431;-63
2023/11/02 09:09:32;;;;;;;1999.90;999.90;;;;;;;15.54;67.08;95945.00;5157311;27;20057;-63
2023/11/02 09:11:59;;;;;;;1999.90;999.90;;;;;;;15.60;66.53;95942.91;5157313;27;20047;-63
2023/11/02 09:14:26;;;;;;;1999.90;999.90;;;;;;;15.66;66.56;95937.22;5157375;27;20095;-64
2023/11/02 09:16:53;;;;;;;1999.90;999.90;;;;;;;15.67;65.82;95936.25;5157155;27;20058;-63
2023/11/02 09:19:22;;;;;;;1999.90;999.90;;;;;;;15.71;65.57;95932.47;5157033;27;20042;-62
2023/11/02 09:21:49;;;;;;;1999.90;999.90;;;;;;;15.75;65.29;95931.28;5157102;27;20506;-63
2023/11/02 09:24:16;;;;;;;1999.90;999.90;;;;;;;15.82;65.32;95936.16;5157059;27;20039;-63
2023/11/02 09:26:43;;;;;;;1999.90;999.90;;;;;;;15.86;65.57;95929.72;5157036;27;20046;-64
2023/11/02 09:29:10;;;;;;;1999.90;999.90;;;;;;;15.92;65.11;95924.00;5157003;27;20130;-63
2023/11/02 09:31:37;;;;;;;1999.90;999.90;;;;;;;15.89;65.16;95927.72;5156947;27;20053;-63
2023/11/02 09:34:05;;;;;;;1999.90;999.90;;;;;;;15.76;64.97;95925.09;5156965;27;20043;-62
2023/11/02 09:36:33;;;;;;;1999.90;999.90;;;;;;;15.70;64.88;95914.97;5156840;27;20053;-63
2023/11/02 09:39:03;;;;;;;1999.90;999.90;;;;;;;15.63;65.08;95911.88;5156615;27;20512;-63
2023/11/02 09:41:31;;;;;;;1999.90;999.90;;;;;;;15.64;64.72;95894.28;5156642;27;20099;-63
2023/11/02 09:43:59;;;;;;;1999.90;999.90;;;;;;;15.65;64.59;95888.91;5156650;27;20484;-64
2023/11/02 09:46:26;;;;;;;1999.90;999.90;;;;;;;15.69;64.88;95893.97;5156521;27;20126;-62
2023/11/02 09:48:53;;;;;;;1999.90;999.90;;;;;;;15.76;64.65;95884.69;5156491;27;20491;-63
2023/11/02 09:51:21;;;;;;;1999.90;999.90;;;;;;;15.78;64.63;95875.72;5156576;27;20129;-62
2023/11/02 09:53:50;;;;;;;1999.90;999.90;;;;;;;15.84;64.90;95863.91;5156541;27;20043;-62
2023/11/02 09:56:20;;;;;;;1999.90;999.90;;;;;;;15.88;64.68;95862.75;5156536;27;20039;-63
2023/11/02 09:58:48;;;;;;;1999.90;999.90;;;;;;;15.99;64.83;95853.25;5156594;27;20050;-63
2023/11/02 10:01:16;;;;;;;1999.90;999.90;;;;;;;16.08;64.87;95851.75;5156393;27;20047;-63
2023/11/02 10:03:43;;;;;;;1999.90;999.90;;;;;;;16.20;63.65;95847.41;5156300;27;20476;-62
2023/11/02 10:06:11;;;;;;;1999.90;999.90;;;;;;;16.29;63.49;95849.38;5156249;27;20081;-63
2023/11/02 10:08:38;;;;;;;1999.90;999.90;;;;;;;16.32;63.14;95859.72;5156333;27;20068;-62
2023/11/02 10:11:14;;;;;;;1999.90;999.90;;;;;;;16.23;63.70;95852.47;5156265;27;20058;-62
2023/11/02 10:13:41;;;;;;;1999.90;999.90;;;;;;;16.16;64.51;95844.13;5156078;27;20099;-62
2023/11/02 10:16:09;;;;;;;1999.90;999.90;;;;;;;16.00;65.32;95841.75;5156112;27;20058;-62
2023/11/02 10:18:37;;;;;;;1999.90;999.90;;;;;;;15.84;66.31;95849.88;5156096;27;20047;-64
2023/11/02 10:21:08;;;;;;;1999.90;999.90;;;;;;;15.78;66.38;95845.88;5155873;27;20050;-63
2023/11/02 10:23:53;;;;;;;1999.90;999.90;;;;;;;15.77;66.25;95837.13;5155932;27;20074;-62
2023/11/02 10:26:24;;;;;;;1999.90;999.90;;;;;;;15.81;66.70;95837.75;5155880;27;20050;-63
2023/11/02 10:28:55;;;;;;;;;;;;;;;15.81;66.56;95845.69;5156326;27;20472;-62
2023/11/02 10:31:25;;;;;;;1999.90;999.90;;;;;;;15.85;66.39;95841.00;5155913;27;19942;-63
2023/11/02 10:33:53;;;;;;;1999.90;999.90;;;;;;;15.85;66.42;95830.47;5155669;27;20446;-63
2023/11/02 10:36:20;;;;;;;1999.90;999.90;;;;;;;15.96;66.10;95825.31;5155660;27;20043;-63
2023/11/02 10:38:49;;;;;;;1999.90;999.90;;;;;;;16.10;66.11;95829.59;5155474;27;20107;-64
2023/11/02 10:41:17;;;;;;;1999.90;999.90;;;;;;;16.24;65.92;95833.03;5155542;27;20128;-64
2023/11/02 10:43:47;;;;;;;1999.90;999.90;;;;;;;16.26;65.15;95828.50;5155625;27;20051;-62
2023/11/02 10:46:16;;;;;;;1999.90;999.90;;;;;;;16.35;65.27;95827.84;5155490;27;20121;-63
2023/11/02 10:48:44;;;;;;;1999.90;999.90;;;;;;;16.33;66.01;95827.09;5155527;27;20477;-63
2023/11/02 10:51:16;;;;;;;1999.90;999.90;;;;;;;16.20;66.49;95815.75;5155318;27;20065;-63
2023/11/02 10:53:56;;;;;;;1999.90;999.90;;;;;;;16.10;67.28;95816.41;5155445;27;20404;-63
2023/11/02 10:56:26;;;;;;;1999.90;999.90;;;;;;;15.97;66.88;95813.81;5154850;27;20114;-63
2023/11/02 10:58:55;;;;;;;1999.90;999.90;;;;;;;15.96;66.90;95812.13;5155278;27;20129;-62
2023/11/02 11:01:24;;;;;;;1999.90;999.90;;;;;;;15.95;67.57;95804.31;5155090;27;20097;-63
2023/11/02 11:03:53;;;;;;;1999.90;999.90;;;;;;;15.87;68.33;95807.47;5155256;27;20043;-63
2023/11/02 11:06:23;;;;;;;1999.90;999.90;;;;;;;15.76;69.15;95798.53;5155101;27;20480;-63
2023/11/02 11:08:51;;;;;;;1999.90;999.90;;;;;;;15.74;69.81;95803.06;5155175;27;20107;-62
2023/11/02 11:11:20;;;;;;;1999.90;999.90;;;;;;;15.49;71.69;95796.03;5155456;27;20047;-62
2023/11/02 11:13:48;;;;;;;1999.90;999.90;;;;;;;15.50;71.94;95792.47;5154967;27;20553;-63